createdAt,value
2022-09-26T00:00:13.944Z,11.47
2022-09-26T00:02:51.354Z,12.28
2022-09-26T00:05:29.306Z,12.16
2022-09-26T00:08:03.843Z,11.51
2022-09-26T00:10:36.706Z,12.05
2022-09-26T00:13:11.589Z,12.36
2022-09-26T00:16:08.575Z,11.34
2022-09-26T00:18:56.567Z,12.56
2022-09-26T00:24:19.312Z,12.57
2022-09-26T00:27:34.439Z,12.04
2022-09-26T00:30:03.072Z,12.59
2022-09-26T00:32:44.793Z,11.68
2022-09-26T00:35:14.658Z,12.30
2022-09-26T00:37:52.444Z,11.49
2022-09-26T00:40:26.780Z,11.50
2022-09-26T00:43:02.850Z,12.39
2022-09-26T00:45:34.708Z,12.20
2022-09-26T00:48:28.104Z,11.30
2022-09-26T00:51:19.032Z,11.95
2022-09-26T00:54:09.069Z,12.11
2022-09-26T00:56:43.939Z,12.57
2022-09-26T00:59:31.537Z,11.90
2022-09-26T01:02:02.667Z,11.48
2022-09-26T01:04:54.533Z,11.45
2022-09-26T01:07:28.562Z,12.44
2022-09-26T01:10:02.617Z,11.50
2022-09-26T01:12:35.020Z,12.03
2022-09-26T01:15:08.259Z,11.70
2022-09-26T01:17:50.609Z,11.36
2022-09-26T01:20:32.236Z,11.52
2022-09-26T01:23:37.992Z,12.46
2022-09-26T01:26:49.197Z,11.46
2022-09-26T01:30:02.714Z,12.35
2022-09-26T01:33:07.776Z,11.81
2022-09-26T01:36:07.188Z,12.49
2022-09-26T01:38:54.593Z,12.51
2022-09-26T01:41:48.390Z,12.25
2022-09-26T01:44:34.803Z,11.36
2022-09-26T01:47:14.231Z,11.42
2022-09-26T01:50:07.192Z,12.26
2022-09-26T01:52:53.647Z,12.47
2022-09-26T01:55:44.582Z,12.21
2022-09-26T01:58:33.281Z,11.34
2022-09-26T02:01:17.412Z,11.40
2022-09-26T02:04:05.331Z,12.15
2022-09-26T02:06:45.834Z,12.41
2022-09-26T02:09:42.084Z,11.36
2022-09-26T02:12:50.056Z,12.39
2022-09-26T02:15:25.809Z,12.22
2022-09-26T02:18:05.874Z,11.92
2022-09-26T02:20:41.472Z,12.32
2022-09-26T02:23:23.818Z,12.36
2022-09-26T02:25:57.615Z,12.34
2022-09-26T02:28:27.055Z,11.25
2022-09-26T02:30:56.687Z,11.73
2022-09-26T02:33:28.516Z,12.33
2022-09-26T02:35:56.942Z,12.20
2022-09-26T02:38:27.746Z,11.78
2022-09-26T02:41:15.223Z,11.77
2022-09-26T02:44:21.580Z,11.95
2022-09-26T02:47:18.488Z,12.22
2022-09-26T02:50:20.105Z,11.21
2022-09-26T02:53:02.148Z,10.97
2022-09-26T02:55:58.753Z,11.91
2022-09-26T02:58:41.157Z,12.19
2022-09-26T03:01:19.306Z,11.03
2022-09-26T03:04:10.668Z,11.78
2022-09-26T03:06:46.992Z,11.42
2022-09-26T03:09:21.693Z,11.79
2022-09-26T03:12:02.607Z,11.14
2022-09-26T03:14:49.386Z,11.02
2022-09-26T03:17:29.388Z,11.20
2022-09-26T03:20:10.243Z,11.57
2022-09-26T03:23:02.822Z,11.85
2022-09-26T03:25:49.988Z,11.29
2022-09-26T03:28:37.647Z,11.06
2022-09-26T03:31:35.431Z,11.14
2022-09-26T03:34:05.346Z,12.17
2022-09-26T03:36:33.268Z,11.14
2022-09-26T03:39:04.217Z,12.11
2022-09-26T03:41:34.221Z,11.74
2022-09-26T03:44:02.893Z,11.26
2022-09-26T03:46:37.731Z,11.87
2022-09-26T03:49:12.277Z,11.55
2022-09-26T03:51:42.196Z,11.79
2022-09-26T03:54:08.982Z,11.23
2022-09-26T03:56:38.594Z,11.82
2022-09-26T03:59:06.768Z,12.07
2022-09-26T04:01:41.376Z,11.06
2022-09-26T04:04:16.238Z,11.91
2022-09-26T04:06:43.191Z,11.71
2022-09-26T04:09:15.900Z,11.35
2022-09-26T04:11:50.432Z,11.77
2022-09-26T04:14:24.061Z,11.46
2022-09-26T04:17:07.839Z,11.21
2022-09-26T04:19:40.726Z,11.14
2022-09-26T04:22:11.259Z,12.12
2022-09-26T04:24:40.051Z,11.34
2022-09-26T04:27:08.990Z,11.71
2022-09-26T04:29:38.862Z,11.32
2022-09-26T04:32:10.145Z,11.65
2022-09-26T04:34:41.201Z,11.25
2022-09-26T04:37:10.366Z,11.91
2022-09-26T04:39:55.078Z,11.47
2022-09-26T04:42:23.553Z,11.01
2022-09-26T04:44:54.541Z,11.02
2022-09-26T04:47:49.284Z,11.78
2022-09-26T05:00:03.773Z,12.03
2022-09-26T05:02:40.242Z,11.11
2022-09-26T05:05:18.368Z,11.64
2022-09-26T05:10:56.942Z,11.63
2022-09-26T05:13:24.094Z,10.79
2022-09-26T05:15:51.219Z,11.47
2022-09-26T05:18:25.216Z,10.77
2022-09-26T05:24:44.616Z,11.93
2022-09-26T05:27:17.744Z,11.51
2022-09-26T05:29:57.908Z,11.17
2022-09-26T05:32:34.919Z,10.86
2022-09-26T05:35:18.453Z,11.29
2022-09-26T05:38:01.365Z,10.78
2022-09-26T05:40:38.298Z,10.83
2022-09-26T05:43:07.176Z,11.92
2022-09-26T05:45:35.193Z,11.30
2022-09-26T05:48:03.917Z,11.44
2022-09-26T05:50:38.438Z,11.41
2022-09-26T05:53:13.018Z,11.80
2022-09-26T05:55:40.152Z,11.32
2022-09-26T05:58:10.061Z,11.82
2022-09-26T06:00:37.101Z,11.85
2022-09-26T06:03:05.803Z,11.62
2022-09-26T06:05:37.833Z,11.48
2022-09-26T06:08:14.629Z,10.76
2022-09-26T06:10:48.128Z,11.80
2022-09-26T06:13:18.076Z,11.73
2022-09-26T06:15:50.748Z,10.64
2022-09-26T06:18:53.208Z,10.56
2022-09-26T06:21:27.186Z,11.72
2022-09-26T06:24:03.002Z,11.72
2022-09-26T06:26:37.543Z,10.90
2022-09-26T06:29:11.010Z,10.91
2022-09-26T06:31:45.222Z,11.01
2022-09-26T06:34:15.066Z,10.65
2022-09-26T06:36:48.948Z,11.30
2022-09-26T06:39:17.918Z,11.26
2022-09-26T06:41:47.734Z,10.55
2022-09-26T06:44:15.169Z,11.61
2022-09-26T06:46:47.525Z,10.93
2022-09-26T06:49:16.218Z,10.96
2022-09-26T06:51:46.773Z,10.68
2022-09-26T06:54:18.107Z,11.70
2022-09-26T06:56:51.145Z,11.54
2022-09-26T06:59:18.485Z,11.61
2022-09-26T07:01:50.583Z,11.24
2022-09-26T07:04:20.599Z,11.23
2022-09-26T07:07:02.908Z,11.62
2022-09-26T07:09:32.279Z,11.17
2022-09-26T07:12:15.569Z,11.63
2022-09-26T07:14:53.623Z,11.41
2022-09-26T07:17:31.552Z,11.43
2022-09-26T07:20:04.594Z,11.56
2022-09-26T07:22:39.338Z,11.60
2022-09-26T07:25:14.328Z,11.76
2022-09-26T07:27:42.340Z,11.80
2022-09-26T07:30:10.081Z,11.22
2022-09-26T07:32:42.703Z,10.74
2022-09-26T07:35:20.453Z,11.81
2022-09-26T07:38:00.990Z,11.70
2022-09-26T07:40:29.147Z,10.88
2022-09-26T07:43:19.254Z,10.92
2022-09-26T07:45:56.351Z,11.20
2022-09-26T07:48:26.175Z,11.05
2022-09-26T07:50:58.712Z,11.63
2022-09-26T07:53:27.963Z,10.88
2022-09-26T07:56:06.704Z,11.09
2022-09-26T07:58:41.146Z,12.18
2022-09-26T08:01:15.128Z,11.95
2022-09-26T08:03:44.609Z,11.55
2022-09-26T08:06:13.817Z,11.42
2022-09-26T08:08:42.417Z,11.22
2022-09-26T08:11:17.146Z,11.35
2022-09-26T08:13:51.373Z,12.30
2022-09-26T08:16:24.886Z,11.31
2022-09-26T08:18:53.163Z,11.82
2022-09-26T08:21:31.922Z,12.09
2022-09-26T08:24:01.272Z,11.47
2022-09-26T08:26:30.769Z,12.20
2022-09-26T08:28:57.528Z,12.41
2022-09-26T08:31:27.120Z,11.86
2022-09-26T08:33:56.776Z,12.25
2022-09-26T08:36:23.768Z,12.45
2022-09-26T08:38:50.681Z,12.39
2022-09-26T08:41:35.204Z,11.68
2022-09-26T08:44:26.804Z,12.21
2022-09-26T08:46:55.333Z,12.78
2022-09-26T08:49:50.521Z,12.88
2022-09-26T08:52:27.381Z,12.90
2022-09-26T08:55:05.100Z,11.98
2022-09-26T08:57:49.676Z,12.09
2022-09-26T09:00:20.616Z,12.07
2022-09-26T09:03:05.134Z,12.76
2022-09-26T09:05:35.548Z,11.91
2022-09-26T09:08:11.511Z,12.83
2022-09-26T09:10:47.858Z,13.04
2022-09-26T09:13:34.295Z,12.59
2022-09-26T09:16:32.150Z,13.04
2022-09-26T09:19:17.123Z,11.96
2022-09-26T09:21:58.634Z,13.01
2022-09-26T09:24:41.143Z,11.95
2022-09-26T09:30:48.221Z,11.94
2022-09-26T09:33:30.357Z,12.63
2022-09-26T09:36:11.056Z,12.50
2022-09-26T09:38:58.198Z,12.68
2022-09-26T09:41:38.705Z,12.57
2022-09-26T09:44:34.022Z,11.65
2022-09-26T09:47:20.447Z,12.25
2022-09-26T09:50:16.922Z,12.66
2022-09-26T09:56:17.258Z,12.06
2022-09-26T09:59:12.384Z,12.49
2022-09-26T10:01:47.782Z,12.49
2022-09-26T10:04:47.270Z,11.56
2022-09-26T10:07:25.912Z,12.74
2022-09-26T10:12:48.720Z,11.88
2022-09-26T10:15:22.528Z,12.58
2022-09-26T10:18:24.678Z,12.37
2022-09-26T10:21:07.792Z,11.50
2022-09-26T10:23:50.462Z,12.14
2022-09-26T10:26:33.525Z,12.54
2022-09-26T10:29:44.945Z,12.19
2022-09-26T10:32:26.426Z,12.23
2022-09-26T10:35:34.150Z,11.56
2022-09-26T10:41:32.249Z,11.76
2022-09-26T10:44:20.320Z,11.44
2022-09-26T10:53:37.489Z,12.36
2022-09-26T10:56:22.435Z,12.24
2022-09-26T10:59:13.000Z,12.58
2022-09-26T11:02:03.940Z,12.58
2022-09-26T11:04:54.643Z,11.51
2022-09-26T11:07:34.096Z,12.61
2022-09-26T11:10:09.577Z,12.44
2022-09-26T11:13:22.601Z,11.62
2022-09-26T11:16:37.151Z,12.43
2022-09-26T11:19:33.545Z,12.56
2022-09-26T11:22:27.459Z,12.32
2022-09-26T11:25:10.826Z,12.55
2022-09-26T11:30:51.122Z,11.82
2022-09-26T11:33:35.175Z,12.62
2022-09-26T11:43:15.583Z,11.88
2022-09-26T11:46:32.338Z,11.83
2022-09-26T11:49:40.914Z,12.55
2022-09-26T11:58:32.239Z,12.93
2022-09-26T12:04:55.120Z,12.36
2022-09-26T12:08:08.871Z,12.07
2022-09-26T12:20:44.448Z,12.27
2022-09-26T12:27:23.382Z,13.48
2022-09-26T12:35:07.666Z,12.76
2022-09-26T12:37:22.062Z,13.75
2022-09-26T12:40:23.327Z,13.86
2022-09-26T12:44:00.280Z,13.55
2022-09-26T12:47:20.508Z,13.37
2022-09-26T12:50:31.739Z,13.24
2022-09-26T12:54:20.972Z,13.89
2022-09-26T13:07:25.016Z,12.93
2022-09-26T13:17:12.413Z,14.00
2022-09-26T13:20:16.866Z,13.97
2022-09-26T13:26:56.474Z,14.06
2022-09-26T13:30:35.283Z,13.89
2022-09-26T13:44:03.193Z,14.43
2022-09-26T13:47:17.295Z,14.78
2022-09-26T13:50:45.015Z,14.59
2022-09-26T13:54:06.913Z,14.83
2022-09-26T13:56:55.401Z,15.60
2022-09-26T14:03:28.127Z,16.61
2022-09-26T14:13:29.237Z,15.73
2022-09-26T14:16:38.158Z,15.26
2022-09-26T14:19:59.582Z,15.36
2022-09-26T14:23:25.539Z,15.60
2022-09-26T14:26:20.131Z,15.69
2022-09-26T14:29:36.953Z,15.57
2022-09-26T14:32:49.461Z,15.47
2022-09-26T14:36:23.513Z,15.53
2022-09-26T14:39:18.223Z,15.20
2022-09-26T14:42:28.292Z,15.01
2022-09-26T14:45:20.538Z,15.04
2022-09-26T14:48:09.035Z,15.49
2022-09-26T14:54:18.903Z,15.48
2022-09-26T14:57:20.884Z,15.24
2022-09-26T14:59:58.882Z,15.41
2022-09-26T15:03:15.623Z,15.31
2022-09-26T15:12:45.141Z,14.20
2022-09-26T15:15:58.176Z,14.60
2022-09-26T15:18:56.552Z,13.96
2022-09-26T15:22:11.758Z,13.98
2022-09-26T15:32:09.034Z,14.52
2022-09-26T15:35:05.985Z,16.06
2022-09-26T15:48:11.983Z,15.75
2022-09-26T15:57:46.293Z,16.17
2022-09-26T16:08:43.688Z,15.96
2022-09-26T16:16:18.301Z,15.55
2022-09-26T16:22:32.931Z,14.17
2022-09-26T16:35:45.305Z,13.85
2022-09-26T16:42:19.993Z,14.78
2022-09-26T16:45:26.480Z,13.52
2022-09-26T16:52:28.629Z,13.46
2022-09-26T17:04:53.991Z,14.45
2022-09-26T17:07:29.672Z,13.34
2022-09-26T17:12:57.039Z,14.39
2022-09-26T17:15:30.416Z,13.83
2022-09-26T17:27:41.261Z,12.92
2022-09-26T17:44:12.686Z,13.76
2022-09-26T17:46:44.416Z,12.81
2022-09-26T17:50:02.223Z,13.64
2022-09-26T17:58:55.523Z,12.77
2022-09-26T18:02:00.657Z,13.06
2022-09-26T18:05:11.039Z,12.73
2022-09-26T18:07:48.079Z,12.24
2022-09-26T18:10:36.801Z,13.14
2022-09-26T18:14:09.663Z,13.08
2022-09-26T18:16:19.652Z,12.85
2022-09-26T18:18:54.083Z,12.83
2022-09-26T18:24:41.706Z,12.02
2022-09-26T18:30:38.367Z,12.04
2022-09-26T18:33:09.480Z,12.51
2022-09-26T18:36:27.135Z,11.94
2022-09-26T18:39:12.419Z,12.54
2022-09-26T18:41:53.931Z,13.13
2022-09-26T18:44:40.023Z,12.87
2022-09-26T18:47:32.817Z,13.07
2022-09-26T18:53:00.485Z,12.51
2022-09-26T18:55:31.890Z,11.75
2022-09-26T19:01:10.226Z,12.51
2022-09-26T19:04:04.962Z,12.19
2022-09-26T19:06:39.280Z,11.68
2022-09-26T19:09:23.313Z,11.60
2022-09-26T19:17:41.590Z,12.75
2022-09-26T19:20:16.898Z,12.49
2022-09-26T19:22:46.696Z,12.08
2022-09-26T19:31:38.484Z,12.17
2022-09-26T19:34:17.009Z,11.48
2022-09-26T19:36:54.893Z,11.53
2022-09-26T19:42:26.774Z,11.43
2022-09-26T19:45:22.967Z,11.98
2022-09-26T19:48:25.814Z,12.29
2022-09-26T19:51:16.895Z,12.17
2022-09-26T19:53:54.974Z,12.58
2022-09-26T19:56:48.815Z,11.94
2022-09-26T20:00:12.004Z,11.35
2022-09-26T20:06:22.823Z,12.20
2022-09-26T20:12:16.780Z,12.16
2022-09-26T20:15:07.608Z,12.64
2022-09-26T20:27:35.371Z,11.45
2022-09-26T20:30:02.785Z,11.66
2022-09-26T20:35:24.363Z,11.22
2022-09-26T20:41:46.335Z,12.52
2022-09-26T20:47:27.450Z,11.31
2022-09-26T20:50:07.862Z,12.05
2022-09-26T20:55:54.009Z,12.47
2022-09-26T21:01:38.204Z,12.18
2022-09-26T21:04:08.762Z,12.12
2022-09-26T21:06:41.082Z,11.65
2022-09-26T21:09:30.873Z,12.11
2022-09-26T21:12:23.100Z,12.34
2022-09-26T21:15:03.987Z,11.17
2022-09-26T21:18:20.434Z,12.36
2022-09-26T21:24:39.336Z,11.06
2022-09-26T21:31:34.598Z,11.76
2022-09-26T21:41:41.735Z,11.64
2022-09-26T21:47:29.855Z,12.23
2022-09-26T21:51:13.292Z,11.74
2022-09-26T21:53:42.320Z,12.17
2022-09-26T21:56:43.934Z,10.81
2022-09-26T22:02:56.801Z,12.10
2022-09-26T22:06:31.058Z,11.14
2022-09-26T22:10:03.046Z,12.01
2022-09-26T22:13:36.608Z,10.60
2022-09-26T22:16:20.585Z,11.61
2022-09-26T22:19:18.226Z,11.50
2022-09-26T22:22:22.280Z,11.41
2022-09-26T22:27:43.155Z,11.77
2022-09-26T22:30:22.521Z,10.69
2022-09-26T22:33:34.722Z,11.76
2022-09-26T22:36:09.844Z,10.70
2022-09-26T22:39:11.233Z,10.50
2022-09-26T22:41:50.140Z,10.51
2022-09-26T22:47:57.201Z,10.42
2022-09-26T22:50:59.492Z,11.28
2022-09-26T22:53:59.581Z,11.44
2022-09-26T22:56:44.786Z,11.12
2022-09-26T22:59:14.192Z,10.26
2022-09-26T23:02:02.222Z,10.75
2022-09-26T23:11:00.294Z,10.60
2022-09-26T23:17:22.711Z,10.03
2022-09-26T23:23:27.271Z,11.28
2022-09-26T23:29:49.793Z,10.92
2022-09-26T23:35:39.706Z,9.97
2022-09-26T23:38:19.871Z,10.00
2022-09-26T23:44:40.564Z,10.72
2022-09-26T23:47:09.924Z,10.48
2022-09-26T23:49:41.006Z,11.17
2022-09-26T23:52:25.111Z,11.30
2022-09-26T23:55:22.904Z,10.16
2022-09-26T23:58:13.393Z,10.02
